sensor_id;sensor_type;location;lat;lon;timestamp;P1;durP1;ratioP1;P2;durP2;ratioP2
18194;SDS011;9223;50.988;3.162;2024-01-30T00:03:12;3.72;;;3.15;;
18194;SDS011;9223;50.988;3.162;2024-01-30T00:09:17;5.07;;;4.00;;
18194;SDS011;9223;50.988;3.162;2024-01-30T00:15:21;5.75;;;4.40;;
18194;SDS011;9223;50.988;3.162;2024-01-30T00:21:25;5.15;;;3.60;;
18194;SDS011;9223;50.988;3.162;2024-01-30T00:27:30;4.45;;;3.38;;
18194;SDS011;9223;50.988;3.162;2024-01-30T00:33:33;3.60;;;2.85;;
18194;SDS011;9223;50.988;3.162;2024-01-30T00:39:37;3.28;;;2.88;;
18194;SDS011;9223;50.988;3.162;2024-01-30T00:45:43;5.00;;;3.80;;
18194;SDS011;9223;50.988;3.162;2024-01-30T00:51:46;6.65;;;4.88;;
18194;SDS011;9223;50.988;3.162;2024-01-30T00:57:50;4.70;;;3.28;;
18194;SDS011;9223;50.988;3.162;2024-01-30T01:03:55;6.60;;;5.10;;
18194;SDS011;9223;50.988;3.162;2024-01-30T01:10:00;9.50;;;5.03;;
18194;SDS011;9223;50.988;3.162;2024-01-30T01:16:04;6.15;;;4.43;;
18194;SDS011;9223;50.988;3.162;2024-01-30T01:22:09;5.00;;;3.33;;
18194;SDS011;9223;50.988;3.162;2024-01-30T01:28:13;4.60;;;4.13;;
18194;SDS011;9223;50.988;3.162;2024-01-30T01:34:17;4.32;;;3.40;;
18194;SDS011;9223;50.988;3.162;2024-01-30T01:40:23;4.32;;;3.58;;
18194;SDS011;9223;50.988;3.162;2024-01-30T01:46:27;5.55;;;4.32;;
18194;SDS011;9223;50.988;3.162;2024-01-30T01:52:33;5.00;;;4.07;;
18194;SDS011;9223;50.988;3.162;2024-01-30T01:58:38;7.80;;;5.38;;
18194;SDS011;9223;50.988;3.162;2024-01-30T02:04:42;7.10;;;4.32;;
18194;SDS011;9223;50.988;3.162;2024-01-30T02:10:46;4.00;;;2.58;;
18194;SDS011;9223;50.988;3.162;2024-01-30T02:16:51;6.30;;;5.05;;
18194;SDS011;9223;50.988;3.162;2024-01-30T02:22:56;3.92;;;3.42;;
18194;SDS011;9223;50.988;3.162;2024-01-30T02:29:03;5.43;;;4.10;;
18194;SDS011;9223;50.988;3.162;2024-01-30T02:35:06;4.07;;;3.10;;
18194;SDS011;9223;50.988;3.162;2024-01-30T02:41:11;5.43;;;3.72;;
18194;SDS011;9223;50.988;3.162;2024-01-30T02:47:15;9.13;;;6.35;;
18194;SDS011;9223;50.988;3.162;2024-01-30T02:53:19;7.00;;;5.07;;
18194;SDS011;9223;50.988;3.162;2024-01-30T02:59:24;6.32;;;5.10;;
18194;SDS011;9223;50.988;3.162;2024-01-30T03:05:27;6.05;;;4.80;;
18194;SDS011;9223;50.988;3.162;2024-01-30T03:11:30;8.35;;;5.68;;
18194;SDS011;9223;50.988;3.162;2024-01-30T03:17:35;7.28;;;5.75;;
18194;SDS011;9223;50.988;3.162;2024-01-30T03:23:39;6.97;;;4.93;;
18194;SDS011;9223;50.988;3.162;2024-01-30T03:29:42;6.90;;;4.57;;
18194;SDS011;9223;50.988;3.162;2024-01-30T03:35:47;6.85;;;4.97;;
18194;SDS011;9223;50.988;3.162;2024-01-30T03:41:51;6.10;;;5.50;;
18194;SDS011;9223;50.988;3.162;2024-01-30T03:47:54;6.95;;;5.45;;
18194;SDS011;9223;50.988;3.162;2024-01-30T03:53:59;5.57;;;4.15;;
18194;SDS011;9223;50.988;3.162;2024-01-30T04:00:03;5.43;;;3.85;;
18194;SDS011;9223;50.988;3.162;2024-01-30T04:06:07;6.63;;;5.18;;
18194;SDS011;9223;50.988;3.162;2024-01-30T04:12:12;5.97;;;4.88;;
18194;SDS011;9223;50.988;3.162;2024-01-30T04:18:16;7.75;;;5.53;;
18194;SDS011;9223;50.988;3.162;2024-01-30T04:24:19;6.90;;;5.03;;
18194;SDS011;9223;50.988;3.162;2024-01-30T04:30:24;7.13;;;5.90;;
18194;SDS011;9223;50.988;3.162;2024-01-30T04:36:27;10.05;;;6.07;;
18194;SDS011;9223;50.988;3.162;2024-01-30T04:42:31;7.90;;;5.35;;
18194;SDS011;9223;50.988;3.162;2024-01-30T04:48:36;6.03;;;5.30;;
18194;SDS011;9223;50.988;3.162;2024-01-30T04:54:40;8.18;;;5.30;;
18194;SDS011;9223;50.988;3.162;2024-01-30T05:00:43;6.28;;;4.72;;
18194;SDS011;9223;50.988;3.162;2024-01-30T05:06:49;6.00;;;4.05;;
18194;SDS011;9223;50.988;3.162;2024-01-30T05:12:52;10.32;;;5.43;;
18194;SDS011;9223;50.988;3.162;2024-01-30T05:18:56;9.82;;;6.03;;
18194;SDS011;9223;50.988;3.162;2024-01-30T05:25:05;10.23;;;6.78;;
18194;SDS011;9223;50.988;3.162;2024-01-30T05:31:09;13.63;;;8.38;;
18194;SDS011;9223;50.988;3.162;2024-01-30T05:37:12;7.80;;;5.90;;
18194;SDS011;9223;50.988;3.162;2024-01-30T05:43:20;9.85;;;7.18;;
18194;SDS011;9223;50.988;3.162;2024-01-30T05:49:24;9.18;;;5.95;;
18194;SDS011;9223;50.988;3.162;2024-01-30T05:55:27;7.97;;;5.88;;
18194;SDS011;9223;50.988;3.162;2024-01-30T06:01:32;9.93;;;5.55;;
18194;SDS011;9223;50.988;3.162;2024-01-30T06:07:36;6.22;;;4.78;;
18194;SDS011;9223;50.988;3.162;2024-01-30T06:13:40;10.43;;;5.25;;
18194;SDS011;9223;50.988;3.162;2024-01-30T06:19:45;5.97;;;4.45;;
18194;SDS011;9223;50.988;3.162;2024-01-30T06:25:48;10.27;;;6.18;;
18194;SDS011;9223;50.988;3.162;2024-01-30T06:31:52;9.68;;;5.28;;
18194;SDS011;9223;50.988;3.162;2024-01-30T06:37:57;6.18;;;4.43;;
18194;SDS011;9223;50.988;3.162;2024-01-30T06:44:01;10.00;;;5.70;;
18194;SDS011;9223;50.988;3.162;2024-01-30T06:50:08;8.27;;;4.35;;
18194;SDS011;9223;50.988;3.162;2024-01-30T06:56:12;9.48;;;5.80;;
18194;SDS011;9223;50.988;3.162;2024-01-30T07:02:16;8.23;;;4.60;;
18194;SDS011;9223;50.988;3.162;2024-01-30T07:08:20;5.63;;;4.63;;
18194;SDS011;9223;50.988;3.162;2024-01-30T07:14:25;7.82;;;4.30;;
18194;SDS011;9223;50.988;3.162;2024-01-30T07:20:28;8.73;;;5.57;;
18194;SDS011;9223;50.988;3.162;2024-01-30T07:26:33;9.40;;;5.40;;
18194;SDS011;9223;50.988;3.162;2024-01-30T07:32:38;9.45;;;6.07;;
18194;SDS011;9223;50.988;3.162;2024-01-30T07:38:42;8.55;;;6.40;;
18194;SDS011;9223;50.988;3.162;2024-01-30T07:44:45;12.20;;;7.40;;
18194;SDS011;9223;50.988;3.162;2024-01-30T07:50:50;5.45;;;4.40;;
18194;SDS011;9223;50.988;3.162;2024-01-30T07:56:54;8.48;;;4.38;;
18194;SDS011;9223;50.988;3.162;2024-01-30T08:02:58;9.02;;;4.03;;
18194;SDS011;9223;50.988;3.162;2024-01-30T08:09:03;8.82;;;3.03;;
18194;SDS011;9223;50.988;3.162;2024-01-30T08:15:07;6.80;;;2.58;;
18194;SDS011;9223;50.988;3.162;2024-01-30T08:21:11;5.03;;;2.40;;
18194;SDS011;9223;50.988;3.162;2024-01-30T08:27:16;2.25;;;1.88;;
18194;SDS011;9223;50.988;3.162;2024-01-30T08:33:19;3.67;;;1.88;;
18194;SDS011;9223;50.988;3.162;2024-01-30T08:39:23;2.30;;;1.88;;
18194;SDS011;9223;50.988;3.162;2024-01-30T08:45:28;2.45;;;1.30;;
18194;SDS011;9223;50.988;3.162;2024-01-30T08:51:31;4.75;;;1.67;;
18194;SDS011;9223;50.988;3.162;2024-01-30T08:57:36;3.35;;;1.38;;
18194;SDS011;9223;50.988;3.162;2024-01-30T09:03:41;2.10;;;1.08;;
18194;SDS011;9223;50.988;3.162;2024-01-30T09:09:47;1.58;;;1.05;;
18194;SDS011;9223;50.988;3.162;2024-01-30T09:15:50;2.83;;;1.10;;
18194;SDS011;9223;50.988;3.162;2024-01-30T09:21:55;2.90;;;1.40;;
18194;SDS011;9223;50.988;3.162;2024-01-30T09:27:59;3.10;;;0.65;;
18194;SDS011;9223;50.988;3.162;2024-01-30T09:34:03;2.17;;;0.70;;
18194;SDS011;9223;50.988;3.162;2024-01-30T09:40:09;1.23;;;0.50;;
18194;SDS011;9223;50.988;3.162;2024-01-30T09:46:12;6.28;;;1.00;;
18194;SDS011;9223;50.988;3.162;2024-01-30T09:52:18;2.05;;;0.90;;
18194;SDS011;9223;50.988;3.162;2024-01-30T09:58:23;3.40;;;0.70;;
18194;SDS011;9223;50.988;3.162;2024-01-30T10:04:28;3.40;;;0.85;;
18194;SDS011;9223;50.988;3.162;2024-01-30T10:10:31;2.65;;;0.68;;
18194;SDS011;9223;50.988;3.162;2024-01-30T10:16:36;2.58;;;0.70;;
18194;SDS011;9223;50.988;3.162;2024-01-30T10:22:41;2.25;;;0.95;;
18194;SDS011;9223;50.988;3.162;2024-01-30T10:28:45;3.28;;;0.90;;
18194;SDS011;9223;50.988;3.162;2024-01-30T10:34:51;1.10;;;1.00;;
18194;SDS011;9223;50.988;3.162;2024-01-30T10:40:56;3.72;;;1.02;;
18194;SDS011;9223;50.988;3.162;2024-01-30T10:47:00;2.17;;;0.80;;
18194;SDS011;9223;50.988;3.162;2024-01-30T10:53:07;3.50;;;0.90;;
18194;SDS011;9223;50.988;3.162;2024-01-30T10:59:11;4.40;;;1.20;;
18194;SDS011;9223;50.988;3.162;2024-01-30T11:05:23;1.20;;;0.60;;
18194;SDS011;9223;50.988;3.162;2024-01-30T11:11:48;2.15;;;0.80;;
18194;SDS011;9223;50.988;3.162;2024-01-30T11:17:51;1.60;;;0.80;;
18194;SDS011;9223;50.988;3.162;2024-01-30T11:23:55;1.27;;;0.47;;
18194;SDS011;9223;50.988;3.162;2024-01-30T11:30:02;1.92;;;1.00;;
18194;SDS011;9223;50.988;3.162;2024-01-30T11:36:06;1.38;;;0.80;;
18194;SDS011;9223;50.988;3.162;2024-01-30T11:42:10;2.78;;;1.10;;
18194;SDS011;9223;50.988;3.162;2024-01-30T11:48:15;2.15;;;0.82;;
18194;SDS011;9223;50.988;3.162;2024-01-30T11:54:19;2.33;;;0.73;;
18194;SDS011;9223;50.988;3.162;2024-01-30T12:00:23;2.88;;;0.77;;
18194;SDS011;9223;50.988;3.162;2024-01-30T12:06:27;0.98;;;0.63;;
18194;SDS011;9223;50.988;3.162;2024-01-30T12:12:31;0.90;;;0.70;;
18194;SDS011;9223;50.988;3.162;2024-01-30T12:18:35;2.78;;;0.90;;
18194;SDS011;9223;50.988;3.162;2024-01-30T12:24:40;2.35;;;1.00;;
18194;SDS011;9223;50.988;3.162;2024-01-30T12:30:44;2.28;;;0.70;;
18194;SDS011;9223;50.988;3.162;2024-01-30T12:36:47;1.05;;;0.60;;
18194;SDS011;9223;50.988;3.162;2024-01-30T12:42:53;1.98;;;0.57;;
18194;SDS011;9223;50.988;3.162;2024-01-30T12:48:56;2.75;;;0.65;;
18194;SDS011;9223;50.988;3.162;2024-01-30T12:55:00;1.90;;;0.50;;
18194;SDS011;9223;50.988;3.162;2024-01-30T13:01:07;1.50;;;0.60;;
18194;SDS011;9223;50.988;3.162;2024-01-30T13:07:10;2.10;;;0.82;;
18194;SDS011;9223;50.988;3.162;2024-01-30T13:13:14;6.38;;;1.45;;
18194;SDS011;9223;50.988;3.162;2024-01-30T13:19:22;3.28;;;0.93;;
18194;SDS011;9223;50.988;3.162;2024-01-30T13:25:26;2.67;;;1.08;;
18194;SDS011;9223;50.988;3.162;2024-01-30T13:31:29;1.10;;;0.68;;
18194;SDS011;9223;50.988;3.162;2024-01-30T13:37:35;3.42;;;0.93;;
18194;SDS011;9223;50.988;3.162;2024-01-30T13:43:38;2.88;;;0.90;;
18194;SDS011;9223;50.988;3.162;2024-01-30T13:49:42;1.85;;;1.08;;
18194;SDS011;9223;50.988;3.162;2024-01-30T13:55:47;3.67;;;1.00;;
18194;SDS011;9223;50.988;3.162;2024-01-30T14:01:51;4.53;;;1.05;;
18194;SDS011;9223;50.988;3.162;2024-01-30T14:07:54;2.95;;;1.08;;
18194;SDS011;9223;50.988;3.162;2024-01-30T14:14:00;2.38;;;1.30;;
18194;SDS011;9223;50.988;3.162;2024-01-30T14:20:04;1.75;;;1.00;;
18194;SDS011;9223;50.988;3.162;2024-01-30T14:26:08;2.25;;;1.10;;
18194;SDS011;9223;50.988;3.162;2024-01-30T14:32:13;2.13;;;1.30;;
18194;SDS011;9223;50.988;3.162;2024-01-30T14:38:17;3.53;;;2.10;;
18194;SDS011;9223;50.988;3.162;2024-01-30T14:44:21;3.10;;;1.45;;
18194;SDS011;9223;50.988;3.162;2024-01-30T14:50:25;4.38;;;1.85;;
18194;SDS011;9223;50.988;3.162;2024-01-30T14:56:29;3.30;;;1.73;;
18194;SDS011;9223;50.988;3.162;2024-01-30T15:02:34;1.98;;;1.40;;
18194;SDS011;9223;50.988;3.162;2024-01-30T15:08:39;5.40;;;2.20;;
18194;SDS011;9223;50.988;3.162;2024-01-30T15:14:42;4.80;;;1.70;;
18194;SDS011;9223;50.988;3.162;2024-01-30T15:20:52;4.05;;;1.80;;
18194;SDS011;9223;50.988;3.162;2024-01-30T15:26:57;3.60;;;1.80;;
18194;SDS011;9223;50.988;3.162;2024-01-30T15:33:01;1.80;;;1.45;;
18194;SDS011;9223;50.988;3.162;2024-01-30T15:39:05;2.83;;;1.42;;
18194;SDS011;9223;50.988;3.162;2024-01-30T15:45:10;4.30;;;1.90;;
18194;SDS011;9223;50.988;3.162;2024-01-30T15:51:13;2.00;;;1.80;;
18194;SDS011;9223;50.988;3.162;2024-01-30T15:57:17;1.80;;;1.70;;
18194;SDS011;9223;50.988;3.162;2024-01-30T16:03:22;2.05;;;1.73;;
18194;SDS011;9223;50.988;3.162;2024-01-30T16:09:26;2.75;;;1.88;;
18194;SDS011;9223;50.988;3.162;2024-01-30T16:15:30;2.50;;;2.15;;
18194;SDS011;9223;50.988;3.162;2024-01-30T16:21:35;2.78;;;2.47;;
18194;SDS011;9223;50.988;3.162;2024-01-30T16:27:39;2.55;;;2.20;;
18194;SDS011;9223;50.988;3.162;2024-01-30T16:33:42;2.50;;;2.20;;
18194;SDS011;9223;50.988;3.162;2024-01-30T16:39:47;4.57;;;3.08;;
18194;SDS011;9223;50.988;3.162;2024-01-30T16:45:51;3.65;;;2.72;;
18194;SDS011;9223;50.988;3.162;2024-01-30T16:51:54;2.53;;;2.30;;
18194;SDS011;9223;50.988;3.162;2024-01-30T16:58:03;3.38;;;2.42;;
18194;SDS011;9223;50.988;3.162;2024-01-30T17:04:10;4.55;;;2.80;;
18194;SDS011;9223;50.988;3.162;2024-01-30T17:10:15;5.13;;;4.25;;
18194;SDS011;9223;50.988;3.162;2024-01-30T17:16:20;5.70;;;4.47;;
18194;SDS011;9223;50.988;3.162;2024-01-30T17:22:24;4.68;;;2.60;;
18194;SDS011;9223;50.988;3.162;2024-01-30T17:28:28;4.30;;;3.38;;
18194;SDS011;9223;50.988;3.162;2024-01-30T17:34:33;5.20;;;4.60;;
18194;SDS011;9223;50.988;3.162;2024-01-30T17:40:37;4.40;;;3.60;;
18194;SDS011;9223;50.988;3.162;2024-01-30T17:46:41;4.35;;;3.33;;
18194;SDS011;9223;50.988;3.162;2024-01-30T17:52:46;3.95;;;2.80;;
18194;SDS011;9223;50.988;3.162;2024-01-30T17:58:50;5.57;;;3.63;;
18194;SDS011;9223;50.988;3.162;2024-01-30T18:04:54;4.43;;;3.30;;
18194;SDS011;9223;50.988;3.162;2024-01-30T18:10:59;5.70;;;3.92;;
18194;SDS011;9223;50.988;3.162;2024-01-30T18:17:02;6.55;;;3.97;;
18194;SDS011;9223;50.988;3.162;2024-01-30T18:23:06;4.32;;;3.55;;
18194;SDS011;9223;50.988;3.162;2024-01-30T18:29:11;8.00;;;5.18;;
18194;SDS011;9223;50.988;3.162;2024-01-30T18:35:14;5.70;;;4.90;;
18194;SDS011;9223;50.988;3.162;2024-01-30T18:41:18;7.07;;;5.03;;
18194;SDS011;9223;50.988;3.162;2024-01-30T18:47:23;5.35;;;4.70;;
18194;SDS011;9223;50.988;3.162;2024-01-30T18:53:27;5.05;;;4.35;;
18194;SDS011;9223;50.988;3.162;2024-01-30T18:59:30;5.50;;;4.65;;
18194;SDS011;9223;50.988;3.162;2024-01-30T19:05:35;7.00;;;5.25;;
18194;SDS011;9223;50.988;3.162;2024-01-30T19:11:39;6.25;;;5.13;;
18194;SDS011;9223;50.988;3.162;2024-01-30T19:17:43;7.30;;;4.93;;
18194;SDS011;9223;50.988;3.162;2024-01-30T19:23:47;8.40;;;5.68;;
18194;SDS011;9223;50.988;3.162;2024-01-30T19:29:52;11.93;;;8.23;;
18194;SDS011;9223;50.988;3.162;2024-01-30T19:35:57;9.27;;;6.60;;
18194;SDS011;9223;50.988;3.162;2024-01-30T19:42:03;9.40;;;7.53;;
18194;SDS011;9223;50.988;3.162;2024-01-30T19:48:07;11.25;;;7.10;;
18194;SDS011;9223;50.988;3.162;2024-01-30T19:54:11;8.93;;;6.60;;
18194;SDS011;9223;50.988;3.162;2024-01-30T20:00:17;7.03;;;5.82;;
18194;SDS011;9223;50.988;3.162;2024-01-30T20:06:21;7.75;;;5.65;;
18194;SDS011;9223;50.988;3.162;2024-01-30T20:12:25;7.28;;;5.90;;
18194;SDS011;9223;50.988;3.162;2024-01-30T20:18:30;8.25;;;5.80;;
18194;SDS011;9223;50.988;3.162;2024-01-30T20:24:34;8.05;;;6.00;;
18194;SDS011;9223;50.988;3.162;2024-01-30T20:30:38;12.50;;;7.07;;
18194;SDS011;9223;50.988;3.162;2024-01-30T20:36:43;9.02;;;5.70;;
18194;SDS011;9223;50.988;3.162;2024-01-30T20:42:48;6.70;;;6.00;;
18194;SDS011;9223;50.988;3.162;2024-01-30T20:48:51;6.70;;;5.03;;
18194;SDS011;9223;50.988;3.162;2024-01-30T20:54:56;5.57;;;4.72;;
18194;SDS011;9223;50.988;3.162;2024-01-30T21:01:00;7.35;;;4.78;;
18194;SDS011;9223;50.988;3.162;2024-01-30T21:07:04;6.95;;;5.47;;
18194;SDS011;9223;50.988;3.162;2024-01-30T21:13:09;7.72;;;6.30;;
18194;SDS011;9223;50.988;3.162;2024-01-30T21:19:13;8.18;;;5.80;;
18194;SDS011;9223;50.988;3.162;2024-01-30T21:25:17;8.73;;;6.30;;
18194;SDS011;9223;50.988;3.162;2024-01-30T21:31:22;10.73;;;7.28;;
18194;SDS011;9223;50.988;3.162;2024-01-30T21:37:25;8.10;;;6.00;;
18194;SDS011;9223;50.988;3.162;2024-01-30T21:43:29;8.68;;;6.18;;
18194;SDS011;9223;50.988;3.162;2024-01-30T21:49:37;8.77;;;5.85;;
18194;SDS011;9223;50.988;3.162;2024-01-30T21:55:41;8.63;;;6.70;;
18194;SDS011;9223;50.988;3.162;2024-01-30T22:01:45;9.82;;;7.28;;
18194;SDS011;9223;50.988;3.162;2024-01-30T22:07:50;9.65;;;6.97;;
18194;SDS011;9223;50.988;3.162;2024-01-30T22:13:53;8.13;;;6.15;;
18194;SDS011;9223;50.988;3.162;2024-01-30T22:19:57;9.88;;;7.15;;
18194;SDS011;9223;50.988;3.162;2024-01-30T22:26:02;10.55;;;6.70;;
18194;SDS011;9223;50.988;3.162;2024-01-30T22:32:06;10.57;;;6.93;;
18194;SDS011;9223;50.988;3.162;2024-01-30T22:38:09;9.68;;;6.82;;
18194;SDS011;9223;50.988;3.162;2024-01-30T22:44:14;8.73;;;6.95;;
18194;SDS011;9223;50.988;3.162;2024-01-30T22:50:18;12.80;;;7.80;;
18194;SDS011;9223;50.988;3.162;2024-01-30T22:56:22;12.00;;;7.90;;
18194;SDS011;9223;50.988;3.162;2024-01-30T23:02:27;9.15;;;7.05;;
18194;SDS011;9223;50.988;3.162;2024-01-30T23:08:30;8.73;;;6.72;;
18194;SDS011;9223;50.988;3.162;2024-01-30T23:14:34;9.77;;;6.63;;
18194;SDS011;9223;50.988;3.162;2024-01-30T23:20:39;9.52;;;7.00;;
18194;SDS011;9223;50.988;3.162;2024-01-30T23:26:42;11.65;;;6.85;;
18194;SDS011;9223;50.988;3.162;2024-01-30T23:32:45;9.20;;;7.38;;
18194;SDS011;9223;50.988;3.162;2024-01-30T23:38:52;8.88;;;6.70;;
18194;SDS011;9223;50.988;3.162;2024-01-30T23:44:55;9.13;;;6.93;;
18194;SDS011;9223;50.988;3.162;2024-01-30T23:50:59;8.52;;;6.03;;
18194;SDS011;9223;50.988;3.162;2024-01-30T23:57:04;4.50;;;2.28;;
